createdAt,value
2017-09-08T00:19:29.034Z,72.30
2017-09-08T00:21:57.295Z,72.50
2017-09-08T00:24:26.446Z,72.60
2017-09-08T00:26:54.674Z,72.60
2017-09-08T00:29:23.715Z,72.10
2017-09-08T00:31:51.959Z,72.10
2017-09-08T00:34:20.985Z,72.30
2017-09-08T00:36:49.233Z,72.20
2017-09-08T00:39:17.498Z,72.10
2017-09-08T00:41:46.554Z,72.20
2017-09-08T00:44:14.834Z,72.20
2017-09-08T00:46:43.872Z,72.40
2017-09-08T00:49:12.157Z,72.40
2017-09-08T00:51:40.424Z,72.50
2017-09-08T00:54:08.699Z,72.20
2017-09-08T00:56:37.731Z,72.40
2017-09-08T00:59:05.978Z,72.40
2017-09-08T01:01:34.273Z,72.50
2017-09-08T01:04:02.522Z,72.20
2017-09-08T01:06:30.794Z,72.40
2017-09-08T01:08:59.843Z,72.80
2017-09-08T01:11:28.120Z,72.40
2017-09-08T01:13:57.192Z,72.50
2017-09-08T01:16:25.443Z,72.40
2017-09-08T01:18:53.746Z,72.10
2017-09-08T01:21:21.987Z,72.00
2017-09-08T01:23:50.257Z,73.00
2017-09-08T01:26:18.563Z,72.20
2017-09-08T01:28:46.802Z,72.50
2017-09-08T01:31:15.800Z,73.50
2017-09-08T01:33:44.075Z,73.50
2017-09-08T01:36:12.303Z,73.10
2017-09-08T01:38:40.575Z,72.90
2017-09-08T01:41:08.837Z,73.00
2017-09-08T01:43:37.211Z,72.90
2017-09-08T01:46:05.448Z,72.50
2017-09-08T01:48:33.715Z,72.70
2017-09-08T01:51:02.749Z,72.70
2017-09-08T01:53:30.990Z,72.10
2017-09-08T01:56:00.011Z,72.10
2017-09-08T01:58:28.292Z,71.90
2017-09-08T02:00:56.612Z,72.10
2017-09-08T02:03:24.867Z,72.30
2017-09-08T02:05:53.128Z,72.40
2017-09-08T02:08:22.187Z,72.20
2017-09-08T02:10:50.410Z,72.10
2017-09-08T02:13:18.684Z,72.10
2017-09-08T02:15:46.956Z,72.30
2017-09-08T02:18:15.195Z,72.30
2017-09-08T02:20:44.218Z,72.40
2017-09-08T02:23:12.466Z,72.40
2017-09-08T02:25:41.499Z,72.80
2017-09-08T02:28:09.823Z,72.80
2017-09-08T02:30:38.086Z,73.00
2017-09-08T02:33:06.324Z,73.00
2017-09-08T02:35:34.587Z,72.80
2017-09-08T02:38:02.917Z,73.30
2017-09-08T02:40:31.135Z,73.20
2017-09-08T02:43:00.153Z,74.00
2017-09-08T02:45:28.398Z,73.40
2017-09-08T02:47:57.448Z,73.20
2017-09-08T02:50:25.677Z,73.20
2017-09-08T02:52:54.709Z,73.00
2017-09-08T02:55:23.001Z,72.90
2017-09-08T02:57:51.230Z,73.00
2017-09-08T03:00:19.489Z,72.90
2017-09-08T03:02:48.489Z,72.80
2017-09-08T03:05:16.788Z,72.80
2017-09-08T03:07:45.091Z,73.00
2017-09-08T03:10:13.379Z,73.20
2017-09-08T03:12:41.612Z,72.90
2017-09-08T03:15:10.648Z,73.40
2017-09-08T03:17:38.889Z,73.40
2017-09-08T03:20:07.148Z,73.10
2017-09-08T03:22:36.145Z,73.00
2017-09-08T03:25:05.162Z,73.00
2017-09-08T03:27:33.409Z,73.00
2017-09-08T03:30:02.437Z,72.60
2017-09-08T03:32:30.758Z,72.60
2017-09-08T03:34:59.010Z,72.70
2017-09-08T03:37:27.291Z,72.70
2017-09-08T03:39:55.866Z,72.30
2017-09-08T03:42:24.125Z,72.50
2017-09-08T03:44:52.389Z,72.40
2017-09-08T03:47:20.642Z,72.50
2017-09-08T03:49:48.894Z,72.70
2017-09-08T03:52:17.141Z,72.70
2017-09-08T03:54:45.395Z,73.30
2017-09-08T03:57:14.445Z,72.80
2017-09-08T03:59:43.017Z,73.40
2017-09-08T04:02:11.298Z,73.20
2017-09-08T04:04:39.545Z,73.60
2017-09-08T04:07:08.581Z,72.60
2017-09-08T04:09:36.817Z,72.50
2017-09-08T04:12:05.085Z,73.00
2017-09-08T04:14:33.347Z,72.80
2017-09-08T04:17:02.367Z,72.90
2017-09-08T04:19:30.628Z,72.90
2017-09-08T04:21:59.669Z,73.00
2017-09-08T04:24:27.895Z,72.90
2017-09-08T04:26:56.915Z,72.70
2017-09-08T04:29:26.295Z,73.00
2017-09-08T04:31:55.307Z,73.00
2017-09-08T04:34:23.601Z,73.00
2017-09-08T04:36:51.848Z,73.00
2017-09-08T04:39:20.982Z,73.00
2017-09-08T04:41:49.226Z,73.00
2017-09-08T04:44:18.296Z,73.10
2017-09-08T04:46:46.542Z,73.00
2017-09-08T04:49:14.829Z,72.90
2017-09-08T04:51:43.080Z,73.00
2017-09-08T04:54:11.327Z,72.90
2017-09-08T04:56:40.357Z,73.00
2017-09-08T04:59:08.632Z,72.90
2017-09-08T05:01:36.930Z,72.90
2017-09-08T05:04:05.926Z,72.70
2017-09-08T05:06:34.199Z,72.70
2017-09-08T05:09:02.470Z,72.60
2017-09-08T05:11:30.745Z,72.70
2017-09-08T05:13:59.023Z,72.80
2017-09-08T05:16:27.269Z,72.90
2017-09-08T05:18:55.544Z,72.90
2017-09-08T05:21:23.806Z,73.00
2017-09-08T05:23:52.829Z,73.00
2017-09-08T05:26:21.107Z,72.90
2017-09-08T05:28:49.396Z,72.80
2017-09-08T05:31:17.674Z,72.70
2017-09-08T05:33:45.963Z,72.90
2017-09-08T05:36:14.347Z,72.70
2017-09-08T05:38:42.607Z,72.40
2017-09-08T05:41:10.886Z,72.20
2017-09-08T05:43:39.141Z,72.40
2017-09-08T05:46:07.446Z,72.10
2017-09-08T05:48:35.691Z,72.20
2017-09-08T05:51:04.758Z,72.80
2017-09-08T05:53:33.025Z,72.20
2017-09-08T05:56:01.272Z,72.30
2017-09-08T05:58:29.682Z,72.30
2017-09-08T06:00:57.947Z,71.60
2017-09-08T06:03:26.207Z,71.60
2017-09-08T06:05:55.251Z,71.40
2017-09-08T06:08:23.502Z,71.40
2017-09-08T06:10:51.758Z,71.40
2017-09-08T06:13:20.119Z,71.00
2017-09-08T06:15:48.366Z,71.30
2017-09-08T06:18:17.486Z,70.70
2017-09-08T06:20:46.602Z,70.60
2017-09-08T06:23:14.854Z,70.60
2017-09-08T06:25:43.121Z,70.50
2017-09-08T06:28:12.147Z,70.60
2017-09-08T06:30:40.440Z,70.60
2017-09-08T06:33:09.469Z,70.50
2017-09-08T06:35:37.756Z,70.50
2017-09-08T06:38:06.018Z,70.50
2017-09-08T06:40:34.266Z,70.40
2017-09-08T06:43:02.524Z,70.60
2017-09-08T06:45:30.783Z,70.80
2017-09-08T06:47:59.051Z,70.70
2017-09-08T06:50:28.110Z,72.00
2017-09-08T06:52:56.360Z,71.40
2017-09-08T06:55:24.627Z,71.20
2017-09-08T06:57:52.900Z,70.90
2017-09-08T07:00:21.179Z,70.80
2017-09-08T07:02:49.438Z,70.80
2017-09-08T07:05:17.764Z,70.30
2017-09-08T07:07:46.007Z,70.30
2017-09-08T07:10:14.295Z,70.50
2017-09-08T07:12:42.883Z,70.40
2017-09-08T07:15:11.128Z,69.70
2017-09-08T07:17:39.408Z,70.00
2017-09-08T07:20:08.419Z,70.20
2017-09-08T07:22:36.695Z,70.20
2017-09-08T07:25:04.953Z,69.70
2017-09-08T07:27:33.970Z,69.80
2017-09-08T07:30:02.263Z,69.80
2017-09-08T07:32:30.515Z,70.30
2017-09-08T07:34:58.810Z,70.40
2017-09-08T07:37:27.791Z,70.50
2017-09-08T07:39:56.967Z,70.50
2017-09-08T07:42:25.237Z,70.40
2017-09-08T07:44:53.477Z,70.50
2017-09-08T07:47:21.702Z,70.50
2017-09-08T07:49:50.751Z,70.40
2017-09-08T07:52:18.981Z,70.40
2017-09-08T07:54:47.232Z,70.20
2017-09-08T07:57:15.543Z,70.20
2017-09-08T07:59:43.845Z,70.20
2017-09-08T08:02:12.132Z,70.20
2017-09-08T08:04:40.397Z,69.90
2017-09-08T08:07:08.642Z,70.00
2017-09-08T08:09:36.913Z,70.10
2017-09-08T08:12:05.982Z,70.30
2017-09-08T08:14:34.237Z,70.20
2017-09-08T08:17:02.532Z,69.50
2017-09-08T08:19:30.803Z,68.90
2017-09-08T08:21:59.034Z,68.60
2017-09-08T08:24:27.351Z,69.20
2017-09-08T08:26:55.615Z,69.90
2017-09-08T08:29:23.857Z,69.80
2017-09-08T08:31:52.918Z,69.20
2017-09-08T08:34:21.157Z,69.20
2017-09-08T08:36:49.465Z,69.90
2017-09-08T08:39:17.697Z,69.80
2017-09-08T08:41:45.972Z,69.00
2017-09-08T08:44:14.213Z,68.90
2017-09-08T08:46:42.528Z,69.60
2017-09-08T08:49:10.809Z,68.90
2017-09-08T08:51:39.036Z,68.60
2017-09-08T08:54:07.311Z,68.50
2017-09-08T08:56:35.624Z,68.40
2017-09-08T08:59:03.880Z,68.70
2017-09-08T09:01:32.905Z,69.40
2017-09-08T09:04:01.164Z,68.70
2017-09-08T09:06:30.328Z,70.40
2017-09-08T09:08:58.586Z,70.40
2017-09-08T09:11:26.926Z,70.30
2017-09-08T09:13:55.980Z,70.40
2017-09-08T09:16:24.994Z,70.60
2017-09-08T09:18:53.253Z,70.60
2017-09-08T09:21:21.525Z,72.40
2017-09-08T09:23:49.783Z,71.60
2017-09-08T09:26:18.057Z,71.00
2017-09-08T09:28:46.350Z,71.00
2017-09-08T09:31:14.632Z,70.80
2017-09-08T09:33:43.671Z,69.50
2017-09-08T09:36:12.685Z,69.30
2017-09-08T09:38:40.943Z,68.60
2017-09-08T09:41:09.994Z,68.10
2017-09-08T09:43:38.257Z,68.10
2017-09-08T09:46:06.537Z,67.80
2017-09-08T09:48:34.796Z,67.10
2017-09-08T09:51:03.101Z,67.50
2017-09-08T09:53:31.343Z,67.30
2017-09-08T09:55:59.639Z,67.10
2017-09-08T09:58:27.888Z,66.60
2017-09-08T10:00:56.184Z,66.90
2017-09-08T10:03:24.434Z,66.80
2017-09-08T10:05:52.698Z,66.50
2017-09-08T10:08:20.964Z,66.70
2017-09-08T10:10:49.212Z,66.60
2017-09-08T10:13:17.519Z,66.20
2017-09-08T10:15:45.774Z,65.70
2017-09-08T10:18:14.055Z,65.70
2017-09-08T10:20:42.321Z,65.00
2017-09-08T10:23:10.627Z,65.20
2017-09-08T10:25:38.883Z,65.20
2017-09-08T10:28:07.127Z,65.00
2017-09-08T10:30:35.390Z,64.10
2017-09-08T10:33:04.424Z,64.90
2017-09-08T10:35:32.700Z,64.90
2017-09-08T10:38:00.985Z,64.30
2017-09-08T10:40:29.241Z,64.50
2017-09-08T10:42:57.563Z,65.20
2017-09-08T10:45:25.854Z,64.90
2017-09-08T10:47:54.142Z,65.10
2017-09-08T10:50:23.225Z,66.10
2017-09-08T10:52:51.521Z,65.90
2017-09-08T10:55:19.817Z,66.10
2017-09-08T10:57:48.097Z,65.10
2017-09-08T11:00:16.401Z,65.20
2017-09-08T11:02:44.736Z,66.30
2017-09-08T11:05:13.000Z,66.30
2017-09-08T11:07:42.028Z,64.90
2017-09-08T11:10:10.263Z,64.90
2017-09-08T11:12:38.572Z,64.70
2017-09-08T11:15:06.848Z,65.10
2017-09-08T11:17:35.097Z,65.70
2017-09-08T11:20:03.384Z,65.30
2017-09-08T11:22:31.624Z,65.40
2017-09-08T11:24:59.894Z,65.20
2017-09-08T11:27:28.924Z,66.70
2017-09-08T11:29:57.178Z,66.70
2017-09-08T11:32:31.222Z,67.40
2017-09-08T11:35:05.213Z,67.00
2017-09-08T11:37:34.285Z,66.10
2017-09-08T11:40:03.439Z,66.10
2017-09-08T11:42:32.489Z,68.00
2017-09-08T11:45:00.755Z,68.00
2017-09-08T11:47:29.086Z,67.80
2017-09-08T11:49:59.506Z,69.00
2017-09-08T11:52:29.284Z,69.00
2017-09-08T11:54:57.574Z,69.20
2017-09-08T11:57:26.726Z,68.90
2017-09-08T11:59:55.073Z,68.50
2017-09-08T12:02:24.142Z,69.30
2017-09-08T12:04:52.418Z,68.70
2017-09-08T12:07:20.658Z,68.80
2017-09-08T12:09:48.939Z,68.90
2017-09-08T12:12:17.794Z,70.00
2017-09-08T12:14:46.132Z,71.40
2017-09-08T12:17:14.450Z,70.80
2017-09-08T12:19:43.470Z,72.40
2017-09-08T12:22:11.742Z,72.30
2017-09-08T12:24:40.824Z,72.00
2017-09-08T12:27:10.795Z,73.10
2017-09-08T12:29:39.821Z,75.60
2017-09-08T12:32:08.867Z,75.70
2017-09-08T12:34:37.127Z,75.60
2017-09-08T12:37:06.646Z,75.60
2017-09-08T12:39:35.045Z,76.90
2017-09-08T12:42:03.327Z,76.60
2017-09-08T12:44:32.457Z,76.40
2017-09-08T12:47:00.708Z,76.40
2017-09-08T12:49:30.164Z,76.30
2017-09-08T12:51:59.138Z,76.90
2017-09-08T12:54:27.422Z,76.90
2017-09-08T12:57:06.496Z,77.30
2017-09-08T12:59:34.711Z,76.50
2017-09-08T13:02:03.105Z,77.00
2017-09-08T13:04:31.354Z,77.30
2017-09-08T13:06:59.636Z,78.00
2017-09-08T13:09:27.882Z,78.00
2017-09-08T13:11:56.244Z,77.90
2017-09-08T13:14:24.502Z,78.30
2017-09-08T13:16:52.790Z,78.80
2017-09-08T13:19:21.104Z,79.50
2017-09-08T13:21:49.376Z,79.00
2017-09-08T13:24:18.395Z,79.40
2017-09-08T13:26:46.667Z,79.40
2017-09-08T13:29:15.010Z,79.20
2017-09-08T13:31:43.237Z,80.60
2017-09-08T13:34:11.493Z,80.30
2017-09-08T13:36:39.747Z,81.40
2017-09-08T13:39:08.027Z,80.70
2017-09-08T13:41:36.274Z,81.60
2017-09-08T13:44:05.310Z,81.80
2017-09-08T13:46:33.554Z,81.80
2017-09-08T13:49:01.840Z,82.00
2017-09-08T13:51:30.096Z,82.80
2017-09-08T13:53:58.334Z,83.00
2017-09-08T13:56:26.614Z,83.20
2017-09-08T13:58:54.897Z,83.20
2017-09-08T14:01:23.169Z,83.40
2017-09-08T14:03:52.174Z,83.70
2017-09-08T14:06:20.470Z,83.60
2017-09-08T14:08:49.472Z,84.30
2017-09-08T14:11:18.528Z,83.60
2017-09-08T14:13:46.840Z,83.50
2017-09-08T14:16:15.093Z,83.90
2017-09-08T14:18:43.374Z,83.80
2017-09-08T14:21:11.636Z,83.30
2017-09-08T14:23:39.899Z,83.60
2017-09-08T14:26:08.156Z,83.30
2017-09-08T14:28:36.398Z,83.20
2017-09-08T14:31:06.137Z,83.30
2017-09-08T14:33:35.242Z,83.30
2017-09-08T14:36:03.522Z,83.70
2017-09-08T14:38:31.763Z,84.20
2017-09-08T14:41:00.015Z,84.40
2017-09-08T14:43:29.077Z,83.60
2017-09-08T14:45:57.348Z,83.70
2017-09-08T14:48:25.658Z,82.70
2017-09-08T14:50:54.025Z,82.70
2017-09-08T14:53:23.148Z,83.30
2017-09-08T14:55:51.483Z,83.20
2017-09-08T14:58:19.774Z,83.40
2017-09-08T15:00:48.012Z,83.00
2017-09-08T15:03:16.281Z,82.70
2017-09-08T15:05:44.553Z,82.50
2017-09-08T15:08:12.790Z,82.50
2017-09-08T15:10:41.895Z,82.00
2017-09-08T15:13:10.151Z,82.00
2017-09-08T15:15:38.477Z,82.00
2017-09-08T15:18:06.729Z,82.60
2017-09-08T15:20:35.032Z,81.40
2017-09-08T15:23:03.323Z,81.40
2017-09-08T15:25:31.670Z,82.00
2017-09-08T15:27:59.928Z,81.90
2017-09-08T15:30:28.272Z,82.60
2017-09-08T15:32:56.567Z,82.30
2017-09-08T15:35:24.835Z,82.90
2017-09-08T15:37:53.115Z,82.40
2017-09-08T15:40:22.140Z,82.80
2017-09-08T15:42:51.248Z,82.50
2017-09-08T15:45:19.484Z,82.50
2017-09-08T15:47:47.742Z,82.20
2017-09-08T15:50:16.137Z,82.10
2017-09-08T15:52:44.384Z,83.10
2017-09-08T15:55:12.693Z,82.60
2017-09-08T15:57:41.689Z,83.20
2017-09-08T16:00:10.015Z,82.10
2017-09-08T16:02:40.095Z,82.40
2017-09-08T16:05:08.439Z,82.40
2017-09-08T16:07:36.799Z,83.00
2017-09-08T16:10:05.077Z,83.30
2017-09-08T16:12:34.178Z,83.80
2017-09-08T16:15:03.433Z,84.50
2017-09-08T16:17:31.719Z,85.10
2017-09-08T16:20:00.007Z,84.40
2017-09-08T16:22:28.296Z,85.30
2017-09-08T16:24:56.587Z,85.30
2017-09-08T16:27:24.890Z,85.40
2017-09-08T16:29:53.230Z,86.50
2017-09-08T16:32:22.328Z,85.70
2017-09-08T16:34:50.575Z,85.80
2017-09-08T16:37:18.862Z,86.50
2017-09-08T16:39:47.297Z,86.60
2017-09-08T16:42:15.592Z,86.70
2017-09-08T16:44:43.853Z,86.60
2017-09-08T16:47:12.156Z,86.30
2017-09-08T16:49:40.408Z,86.50
2017-09-08T16:52:08.670Z,86.30
2017-09-08T16:54:38.184Z,86.90
2017-09-08T16:57:07.313Z,87.00
2017-09-08T16:59:35.538Z,86.90
2017-09-08T17:02:04.576Z,87.70
2017-09-08T17:04:32.865Z,87.10
2017-09-08T17:07:01.329Z,87.30
2017-09-08T17:09:29.620Z,87.40
2017-09-08T17:11:57.930Z,87.30
2017-09-08T17:14:26.211Z,87.60
2017-09-08T17:16:54.481Z,87.00
2017-09-08T17:19:22.745Z,87.60
2017-09-08T17:21:52.354Z,88.20
2017-09-08T17:24:20.727Z,88.20
2017-09-08T17:26:48.985Z,88.70
2017-09-08T17:29:18.127Z,88.10
2017-09-08T17:31:47.207Z,88.00
2017-09-08T17:34:15.469Z,88.00
2017-09-08T17:36:43.766Z,88.40
2017-09-08T17:39:12.008Z,88.20
2017-09-08T17:41:40.417Z,89.00
2017-09-08T17:44:08.666Z,89.00
2017-09-08T17:46:36.962Z,88.90
2017-09-08T17:49:05.218Z,89.40
2017-09-08T17:51:33.503Z,89.20
2017-09-08T17:54:01.816Z,88.90
2017-09-08T17:56:30.125Z,88.70
2017-09-08T17:58:59.152Z,88.70
2017-09-08T18:01:28.262Z,89.00
2017-09-08T18:03:56.608Z,89.00
2017-09-08T18:06:24.898Z,88.90
2017-09-08T18:08:53.162Z,88.60
2017-09-08T18:11:22.253Z,89.00
2017-09-08T18:13:50.532Z,89.00
2017-09-08T18:16:19.606Z,88.90
2017-09-08T18:18:47.907Z,88.90
2017-09-08T18:21:16.185Z,89.10
2017-09-08T18:23:44.480Z,89.40
2017-09-08T18:26:12.787Z,89.60
2017-09-08T18:28:41.098Z,89.40
2017-09-08T18:31:09.352Z,89.40
2017-09-08T18:33:38.813Z,88.80
2017-09-08T18:36:07.107Z,88.80
2017-09-08T18:38:36.727Z,87.70
2017-09-08T18:41:06.548Z,88.00
2017-09-08T18:43:34.995Z,87.90
2017-09-08T18:46:03.290Z,87.60
2017-09-08T18:48:31.621Z,87.70
2017-09-08T18:50:59.873Z,87.70
2017-09-08T18:53:28.228Z,88.10
2017-09-08T18:55:56.464Z,87.80
2017-09-08T18:58:24.907Z,88.00
2017-09-08T19:00:53.179Z,88.00
2017-09-08T19:03:21.501Z,88.10
2017-09-08T19:05:50.616Z,88.90
2017-09-08T19:08:18.876Z,88.40
2017-09-08T19:10:47.919Z,88.40
2017-09-08T19:13:16.284Z,88.40
2017-09-08T19:15:44.675Z,88.10
2017-09-08T19:18:13.062Z,88.20
2017-09-08T19:20:41.376Z,88.20
2017-09-08T19:23:10.486Z,88.60
2017-09-08T19:25:39.525Z,88.50
2017-09-08T19:28:07.856Z,88.50
2017-09-08T19:30:36.863Z,88.70
2017-09-08T19:33:05.165Z,88.70
2017-09-08T19:35:35.290Z,88.40
2017-09-08T19:38:03.586Z,88.30
2017-09-08T19:40:31.847Z,88.40
2017-09-08T19:43:00.123Z,88.70
2017-09-08T19:45:28.388Z,88.20
2017-09-08T19:47:56.749Z,88.00
2017-09-08T19:50:25.006Z,87.40
2017-09-08T19:52:54.042Z,87.20
2017-09-08T19:55:22.325Z,87.20
2017-09-08T19:57:50.591Z,87.30
2017-09-08T20:00:18.845Z,87.60
2017-09-08T20:02:47.177Z,87.30
2017-09-08T20:05:15.455Z,87.40
2017-09-08T20:07:44.189Z,87.20
2017-09-08T20:10:13.273Z,87.10
2017-09-08T20:12:42.326Z,87.30
2017-09-08T20:15:11.350Z,87.00
2017-09-08T20:17:39.617Z,86.90
2017-09-08T20:20:07.884Z,87.10
2017-09-08T20:22:36.216Z,87.60
2017-09-08T20:25:04.478Z,87.50
2017-09-08T20:27:33.512Z,86.90
2017-09-08T20:30:02.565Z,87.70
2017-09-08T20:32:31.625Z,87.50
2017-09-08T20:34:59.913Z,86.90
2017-09-08T20:37:28.147Z,87.00
2017-09-08T20:39:56.423Z,87.00
2017-09-08T20:42:24.670Z,87.20
2017-09-08T20:44:52.943Z,87.10
2017-09-08T20:47:21.193Z,87.50
2017-09-08T20:49:49.489Z,87.70
2017-09-08T20:52:18.438Z,87.70
2017-09-08T20:54:46.680Z,86.90
2017-09-08T20:57:15.709Z,87.20
2017-09-08T20:59:44.037Z,87.20
2017-09-08T21:02:12.326Z,87.40
2017-09-08T21:04:41.415Z,87.80
2017-09-08T21:07:09.755Z,88.40
2017-09-08T21:09:38.846Z,87.50
2017-09-08T21:12:07.113Z,87.50
2017-09-08T21:14:35.429Z,87.80
2017-09-08T21:17:03.675Z,88.10
2017-09-08T21:19:31.968Z,87.90
2017-09-08T21:22:00.983Z,88.20
2017-09-08T21:24:29.214Z,88.00
2017-09-08T21:26:58.748Z,88.40
2017-09-08T21:29:26.962Z,88.50
2017-09-08T21:31:56.051Z,87.60
2017-09-08T21:34:24.317Z,87.60
2017-09-08T21:36:52.601Z,88.00
2017-09-08T21:39:20.883Z,88.10
2017-09-08T21:41:49.932Z,88.40
2017-09-08T21:44:18.165Z,89.00
2017-09-08T21:46:47.183Z,88.30
2017-09-08T21:49:15.923Z,88.50
2017-09-08T21:51:44.205Z,88.30
2017-09-08T21:54:12.446Z,88.20
2017-09-08T21:56:40.707Z,88.40
2017-09-08T21:59:08.954Z,88.50
2017-09-08T22:01:37.970Z,88.20
2017-09-08T22:04:06.235Z,88.20
2017-09-08T22:06:35.279Z,88.90
2017-09-08T22:09:03.574Z,88.90
2017-09-08T22:11:31.874Z,89.20
2017-09-08T22:14:00.864Z,89.50
2017-09-08T22:16:29.125Z,89.40
2017-09-08T22:18:57.395Z,88.90
2017-09-08T22:21:25.633Z,89.50
2017-09-08T22:23:54.664Z,89.80
2017-09-08T22:26:22.916Z,89.70
2017-09-08T22:28:51.206Z,89.40
2017-09-08T22:31:19.472Z,89.70
2017-09-08T22:33:47.747Z,89.30
2017-09-08T22:36:16.015Z,89.20
2017-09-08T22:38:44.245Z,89.30
2017-09-08T22:41:13.299Z,89.30
2017-09-08T22:43:42.327Z,88.70
2017-09-08T22:46:10.570Z,89.10
2017-09-08T22:48:38.809Z,88.70
2017-09-08T22:51:07.837Z,89.30
2017-09-08T22:53:36.067Z,89.40
2017-09-08T22:56:05.128Z,89.40
2017-09-08T22:58:33.492Z,89.30
2017-09-08T23:01:01.725Z,89.40
2017-09-08T23:03:30.746Z,89.20
2017-09-08T23:05:59.027Z,89.20
2017-09-08T23:08:27.308Z,88.90
2017-09-08T23:10:55.552Z,88.90
2017-09-08T23:13:24.560Z,88.80
2017-09-08T23:15:52.827Z,88.80
2017-09-08T23:18:21.089Z,89.00
2017-09-08T23:20:49.997Z,89.50
2017-09-08T23:23:18.230Z,89.00
2017-09-08T23:25:47.269Z,88.00
2017-09-08T23:28:16.305Z,88.50
2017-09-08T23:30:44.583Z,89.20
2017-09-08T23:33:12.879Z,88.50
2017-09-08T23:35:41.118Z,87.90
2017-09-08T23:38:09.359Z,87.80
2017-09-08T23:40:37.615Z,88.10
2017-09-08T23:43:05.848Z,88.20
2017-09-08T23:45:34.235Z,87.80
2017-09-08T23:48:02.537Z,87.70
2017-09-08T23:50:30.807Z,87.60
2017-09-08T23:52:59.073Z,88.10
2017-09-08T23:55:27.328Z,88.30
2017-09-08T23:57:55.565Z,89.00
